Rice Lake, WI

12:09 PM CDT on May 25, 2018 (GMT -0500)
Rice Lake Regional-Carl's

Weather History for KRPD - November, 2013

Change the Weather History Date:

Tuesday, November 26, 2013

  Actual Average Record
Temperature  
Mean Temperature 19 °F -  
Max Temperature 28 °F 34 °F 53 °F (1998)
Min Temperature 9 °F 21 °F -5 °F (1996)
Degree Days  
Heating Degree Days 46    
Moisture  
Dew Point 6 °F    
Average Humidity 61    
Maximum Humidity 89    
Minimum Humidity 44    
Precipitation  
Precipitation 0.00 in - - ()
Sea Level Pressure  
Sea Level Pressure 30.17 in    
Wind  
Wind Speed 10 mph (NW)    
Max Wind Speed 18 mph    
Max Gust Speed 24 mph    
Visibility 9 miles    
Events Snow    
Averages and records for this station are not official NWS values.
T = Trace of Precipitation, MM = Missing Value Source: NWS Daily Summary

Daily Weather History Graph

Daily Weather History Graph

Search for Another Location

Airport or City:

Astronomy

Nov. 26, 2013 Rise Set
Actual Time 7:20 AM CST 4:27 PM CST
Civil Twilight 6:47 AM CST 5:00 PM CST
Nautical Twilight 6:11 AM CST 5:37 PM CST
Astronomical Twilight 5:35 AM CST 6:12 PM CST
Moon 12:05 AM CST (11/26) 12:52 PM CST (11/26)
Length of Visible Light 10h 13m
Length of Day
9h 07m
Last Quarter, 41% of the Moon is Illuminated
Nov 26
Last Quarter
Dec 2
New
Dec 9
First Quarter
Dec 17
Full
Dec 25
Last Quarter

Hourly Weather History & Observations

Time (CST) Temp. Windchill Dew Point Humidity Pressure Visibility Wind Dir Wind Speed Gust Speed Precip Events Conditions
12:15 AM 28.9 °F 18.2 °F 14.7 °F 55% 30.02 in 10.0 mi WNW 13.8 mph 20.7 mph N/A   Overcast
12:35 AM 28.4 °F 17.5 °F 14.7 °F 57% 30.02 in 10.0 mi WNW 13.8 mph 19.6 mph N/A   Overcast
12:55 AM 28.4 °F 21.2 °F 15.3 °F 58% 30.02 in 10.0 mi WNW 6.9 mph - N/A   Overcast
1:15 AM 27.9 °F 17.8 °F 14.9 °F 58% 30.03 in 10.0 mi NW 11.5 mph 18.4 mph N/A   Overcast
1:35 AM 26.8 °F 18.5 °F 13.5 °F 57% 30.04 in 10.0 mi NW 8.1 mph 18.4 mph N/A   Overcast
1:55 AM 26.4 °F 16.0 °F 12.2 °F 55% 30.05 in 10.0 mi NW 11.5 mph 17.3 mph N/A   Overcast
2:15 AM 26.2 °F 17.1 °F 12.2 °F 55% 30.05 in 10.0 mi NW 9.2 mph - N/A   Overcast
2:35 AM 25.9 °F 16.0 °F 12.0 °F 56% 30.05 in 10.0 mi WNW 10.4 mph 16.1 mph N/A   Overcast
2:55 AM 25.7 °F 18.0 °F 12.0 °F 56% 30.05 in 10.0 mi WNW 6.9 mph - N/A   Overcast
3:15 AM 25.5 °F 19.9 °F 12.6 °F 58% 30.04 in 10.0 mi WNW 4.6 mph - N/A   Overcast
3:35 AM 25.5 °F 18.7 °F 12.4 °F 58% 30.03 in 10.0 mi WNW 5.8 mph - N/A   Overcast
3:55 AM 25.3 °F 18.5 °F 12.6 °F 58% 30.03 in 10.0 mi WNW 5.8 mph - N/A   Overcast
4:15 AM 24.8 °F 17.9 °F 13.3 °F 62% 30.03 in 10.0 mi West 5.8 mph - N/A Snow Light Snow
4:35 AM 24.6 °F 16.7 °F 15.8 °F 69% 30.03 in 5.0 mi West 6.9 mph - N/A Snow Light Snow
4:55 AM 24.3 °F 19.9 °F 16.2 °F 71% 30.03 in 10.0 mi West 3.5 mph - N/A   Overcast
5:15 AM 23.9 °F 19.5 °F 17.2 °F 76% 30.03 in 4.0 mi West 3.5 mph - N/A Snow Light Snow
5:35 AM 23.7 °F 17.8 °F 18.9 °F 82% 30.03 in 1.2 mi West 4.6 mph - N/A Snow Light Snow
5:55 AM 23.0 °F 17.0 °F 20.3 °F 89% 30.04 in 0.8 mi WSW 4.6 mph - N/A Snow Snow
6:15 AM 22.3 °F 10.8 °F 19.4 °F 89% 30.05 in 0.5 mi NNW 11.5 mph 19.6 mph N/A Snow Snow
6:35 AM 21.2 °F 10.1 °F 16.9 °F 83% 30.06 in 1.0 mi WNW 10.4 mph 18.4 mph N/A Snow Light Snow
6:55 AM 21.0 °F 10.6 °F 15.6 °F 80% 30.06 in 5.0 mi WNW 9.2 mph 18.4 mph N/A Snow Light Snow
7:15 AM 20.8 °F 10.4 °F 15.4 °F 80% 30.07 in 7.0 mi WNW 9.2 mph - N/A Snow Light Snow
7:35 AM 19.0 °F 3.6 °F 11.8 °F 74% 30.09 in 0.8 mi WNW 18.4 mph 23.0 mph N/A Snow Light Snow
7:55 AM 17.4 °F 2.4 °F 7.0 °F 64% 30.11 in 7.0 mi WNW 16.1 mph 24.2 mph N/A   Overcast
8:15 AM 15.6 °F 3.2 °F 4.8 °F 62% 30.13 in 10.0 mi WNW 10.4 mph 21.9 mph N/A   Mostly Cloudy
8:35 AM 15.4 °F 3.0 °F 4.8 °F 63% 30.14 in 10.0 mi WNW 10.4 mph - N/A   Mostly Cloudy
8:55 AM 15.6 °F 0.6 °F 2.5 °F 56% 30.15 in 10.0 mi NW 15.0 mph 20.7 mph N/A   Mostly Cloudy
9:15 AM 16.2 °F 2.5 °F 2.1 °F 54% 30.16 in 10.0 mi NW 12.7 mph 19.6 mph N/A   Scattered Clouds
9:35 AM 16.3 °F 2.7 °F 1.8 °F 53% 30.16 in 10.0 mi NW 12.7 mph 20.7 mph N/A   Scattered Clouds
9:55 AM 16.0 °F 2.9 °F 1.8 °F 54% 30.17 in 10.0 mi NW 11.5 mph 21.9 mph N/A   Mostly Cloudy
10:15 AM 16.2 °F 1.3 °F 1.6 °F 53% 30.17 in 10.0 mi NNW 15.0 mph 21.9 mph N/A   Overcast
10:35 AM 15.8 °F 2.7 °F 3.4 °F 58% 30.18 in 10.0 mi WNW 11.5 mph 19.6 mph N/A   Overcast
10:55 AM 16.9 °F 2.3 °F 3.9 °F 57% 30.18 in 10.0 mi WNW 15.0 mph 21.9 mph N/A   Overcast
11:15 AM 16.9 °F 4.1 °F 3.4 °F 55% 30.18 in 10.0 mi NW 11.5 mph 19.6 mph N/A   Overcast
11:35 AM 16.9 °F 4.8 °F 4.1 °F 57% 30.18 in 10.0 mi NW 10.4 mph 20.7 mph N/A   Overcast
11:55 AM 16.9 °F 2.8 °F 4.6 °F 59% 30.18 in 10.0 mi WNW 13.8 mph 23.0 mph N/A   Overcast
12:15 PM 16.7 °F 2.6 °F 4.8 °F 60% 30.18 in 10.0 mi WNW 13.8 mph 17.3 mph N/A   Mostly Cloudy
12:35 PM 17.1 °F 2.5 °F 4.5 °F 58% 30.18 in 10.0 mi WNW 15.0 mph 19.6 mph N/A   Overcast
12:55 PM 17.2 °F 4.5 °F 5.2 °F 59% 30.17 in 10.0 mi WNW 11.5 mph 23.0 mph N/A   Overcast
1:15 PM 18.1 °F 5.0 °F 3.6 °F 53% 30.18 in 10.0 mi WNW 12.7 mph 17.3 mph N/A   Mostly Cloudy
1:35 PM 17.6 °F 5.7 °F 2.3 °F 51% 30.18 in 10.0 mi NW 10.4 mph 21.9 mph N/A   Overcast
1:55 PM 18.7 °F 4.6 °F 1.9 °F 48% 30.18 in 10.0 mi WNW 15.0 mph 19.6 mph N/A   Overcast
2:15 PM 18.5 °F 4.9 °F 1.9 °F 49% 30.19 in 10.0 mi WNW 13.8 mph 18.4 mph N/A   Overcast
2:35 PM 18.7 °F 7.8 °F 0.5 °F 45% 30.18 in 10.0 mi NW 9.2 mph 16.1 mph N/A   Scattered Clouds
2:55 PM 18.5 °F 7.5 °F -0.2 °F 44% 30.19 in 10.0 mi NW 9.2 mph 17.3 mph N/A   Scattered Clouds
3:15 PM 18.3 °F 5.2 °F -0.6 °F 44% 30.20 in 10.0 mi NW 12.7 mph 18.4 mph N/A   Scattered Clouds
3:35 PM 18.0 °F 4.8 °F -0.2 °F 45% 30.21 in 10.0 mi NW 12.7 mph 17.3 mph N/A   Scattered Clouds
3:55 PM 17.2 °F 5.2 °F -0.4 °F 46% 30.21 in 10.0 mi NW 10.4 mph 18.4 mph N/A   Clear
4:15 PM 16.7 °F 4.5 °F 0.1 °F 48% 30.22 in 10.0 mi NW 10.4 mph 17.3 mph N/A   Scattered Clouds
4:35 PM 15.8 °F 5.1 °F 1.0 °F 52% 30.24 in 10.0 mi NW 8.1 mph - N/A   Scattered Clouds
4:55 PM 15.1 °F 6.4 °F 1.2 °F 54% 30.25 in 10.0 mi NW 5.8 mph - N/A   Scattered Clouds
5:15 PM 14.7 °F 5.9 °F 1.4 °F 56% 30.26 in 10.0 mi NW 5.8 mph - N/A   Clear
5:35 PM 14.0 °F 6.5 °F 1.2 °F 57% 30.27 in 10.0 mi NW 4.6 mph - N/A   Clear
5:55 PM 13.8 °F 6.2 °F 1.4 °F 58% 30.27 in 10.0 mi NW 4.6 mph - N/A   Clear
6:15 PM 13.5 °F 4.4 °F 1.4 °F 59% 30.28 in 10.0 mi NW 5.8 mph - N/A   Clear
6:35 PM 13.1 °F 7.1 °F 1.8 °F 61% 30.28 in 10.0 mi NW 3.5 mph - N/A   Clear
6:55 PM 12.9 °F 6.9 °F 1.8 °F 61% 30.28 in 10.0 mi WNW 3.5 mph - N/A   Clear
7:15 PM 12.6 °F - 1.4 °F 61% 30.29 in 10.0 mi Calm Calm - N/A   Clear
7:35 PM 12.0 °F 5.9 °F 1.4 °F 62% 30.29 in 10.0 mi NW 3.5 mph - N/A   Clear
7:55 PM 12.0 °F - 1.4 °F 62% 30.29 in 10.0 mi Calm Calm - N/A   Clear
8:15 PM 11.8 °F 3.9 °F 1.4 °F 63% 30.30 in 10.0 mi NW 4.6 mph - N/A   Clear
8:35 PM 12.2 °F 4.3 °F 1.9 °F 64% 30.30 in 10.0 mi NNW 4.6 mph - N/A   Clear
8:55 PM 12.2 °F 4.3 °F 2.1 °F 64% 30.30 in 10.0 mi NNW 4.6 mph - N/A   Clear
9:15 PM 11.8 °F 2.5 °F 1.8 °F 64% 30.30 in 10.0 mi NW 5.8 mph - N/A   Clear
9:35 PM 11.3 °F 1.9 °F 1.9 °F 66% 30.30 in 10.0 mi NW 5.8 mph - N/A   Clear
9:55 PM 11.7 °F 2.3 °F 2.3 °F 66% 30.30 in 10.0 mi NW 5.8 mph - N/A   Clear
10:15 PM 11.3 °F 1.9 °F 2.7 °F 68% 30.30 in 10.0 mi NW 5.8 mph - N/A   Clear
10:35 PM 11.3 °F 1.9 °F 2.7 °F 68% 30.30 in 10.0 mi NW 5.8 mph - N/A   Clear
10:55 PM 11.1 °F 3.1 °F 3.0 °F 70% 30.30 in 10.0 mi NW 4.6 mph - N/A   Clear
11:15 PM 10.8 °F 4.5 °F 2.8 °F 70% 30.31 in 10.0 mi NW 3.5 mph - N/A   Clear
11:35 PM 10.0 °F 3.6 °F 2.8 °F 73% 30.31 in 10.0 mi NW 3.5 mph - N/A   Clear
11:55 PM 9.7 °F -0.1 °F 3.0 °F 74% 30.32 in 10.0 mi WNW 5.8 mph - N/A   Clear